Time;durP1;ratioP1;P1;durP2;ratioP2;P2;SDS_P1;SDS_P2;PMS_P1;PMS_P2;Temp;Humidity;BMP_temperature;BMP_pressure;BME280_temperature;BME280_humidity;BME280_pressure;Samples;Min_cycle;Max_cycle;Signal;HPM_P1;HPM_P2
2023/07/04 00:01:45;;;;;;;2.77;1.70;;;;;;;17.89;100.00;97938.97;5033926;28;20201;-78
2023/07/04 00:04:13;;;;;;;2.00;1.70;;;;;;;17.87;100.00;97937.63;5054166;28;20211;-78
2023/07/04 00:06:40;;;;;;;3.40;1.77;;;;;;;17.81;100.00;97942.19;5053419;28;20232;-78
2023/07/04 00:09:08;;;;;;;3.33;2.00;;;;;;;17.84;100.00;97940.84;5053895;28;20251;-78
2023/07/04 00:11:35;;;;;;;2.57;1.80;;;;;;;17.80;100.00;97937.91;5053784;28;20715;-78
2023/07/04 00:14:02;;;;;;;3.70;1.90;;;;;;;17.77;100.00;97924.97;5034771;28;20213;-78
2023/07/04 00:16:28;;;;;;;1.83;1.60;;;;;;;17.80;100.00;97921.75;5034455;28;20238;-78
2023/07/04 00:18:54;;;;;;;2.60;2.07;;;;;;;17.75;100.00;97929.00;5033983;28;20229;-78
2023/07/04 00:21:21;;;;;;;3.80;1.90;;;;;;;17.69;100.00;97930.09;5036106;28;20201;-78
2023/07/04 00:23:52;;;;;;;2.00;1.60;;;;;;;17.68;100.00;97936.50;5037493;28;20213;-78
2023/07/04 00:26:20;;;;;;;1.97;1.50;;;;;;;17.71;100.00;97927.94;5037722;28;20320;-78
2023/07/04 00:28:47;;;;;;;2.00;1.83;;;;;;;17.71;100.00;97923.38;5037895;28;20201;-78
2023/07/04 00:31:17;;;;;;;2.47;1.70;;;;;;;17.66;100.00;97926.06;5037395;28;20209;-78
2023/07/04 00:33:44;;;;;;;2.77;1.67;;;;;;;17.72;100.00;97919.59;5052704;28;20255;-78
2023/07/04 00:36:14;;;;;;;1.70;1.60;;;;;;;17.82;100.00;97916.91;5037235;28;20233;-78
2023/07/04 00:38:41;;;;;;;2.57;1.60;;;;;;;17.80;100.00;97919.06;5052330;28;20761;-78
2023/07/04 00:41:16;;;;;;;3.13;2.00;;;;;;;17.76;100.00;97917.16;5057262;28;20583;-79
2023/07/04 00:43:57;;;;;;;2.50;1.80;;;;;;;17.75;100.00;97921.75;5057298;28;20185;-78
2023/07/04 00:46:36;;;;;;;2.97;1.60;;;;;;;17.76;100.00;97930.63;5057940;28;20229;-78
2023/07/04 00:49:03;;;;;;;3.13;1.90;;;;;;;17.76;100.00;97933.31;5038328;28;20201;-78
2023/07/04 00:51:31;;;;;;;2.00;1.80;;;;;;;17.79;100.00;97940.84;5036829;28;20673;-78
2023/07/04 00:53:58;;;;;;;3.63;2.10;;;;;;;17.78;100.00;97931.97;5036787;28;20677;-78
2023/07/04 00:56:28;;;;;;;3.10;1.90;;;;;;;17.83;100.00;97933.88;5036747;28;20227;-78
2023/07/04 00:58:59;;;;;;;3.07;1.80;;;;;;;17.83;100.00;97933.88;5037204;28;20314;-78
2023/07/04 01:01:26;;;;;;;2.67;1.73;;;;;;;17.78;100.00;97937.34;5037005;28;20221;-78
2023/07/04 01:03:53;;;;;;;3.40;1.87;;;;;;;17.84;100.00;97936.28;5037346;28;20229;-78
2023/07/04 01:06:35;;;;;;;2.43;1.93;;;;;;;17.87;100.00;97933.03;5039254;28;20322;-78
2023/07/04 01:09:05;;;;;;;3.07;2.20;;;;;;;17.86;100.00;97934.13;5057033;28;20603;-78
2023/07/04 01:11:42;;;;;;;2.50;1.83;;;;;;;17.89;100.00;97941.66;5056924;28;20312;-78
2023/07/04 01:14:24;;;;;;;2.10;1.90;;;;;;;17.89;100.00;97940.84;5057195;28;20259;-79
2023/07/04 01:16:51;;;;;;;5.73;1.90;;;;;;;17.91;100.00;97942.19;5055742;28;20225;-78
2023/07/04 01:19:25;;;;;;;2.70;2.10;;;;;;;17.92;100.00;97935.75;5057032;28;20228;-78
2023/07/04 01:22:00;;;;;;;2.53;2.10;;;;;;;17.91;100.00;97938.72;5046894;28;20198;-78
2023/07/04 01:24:40;;;;;;;3.03;1.87;;;;;;;17.94;100.00;97932.78;5037110;28;20197;-79
2023/07/04 01:27:07;;;;;;;2.70;2.10;;;;;;;17.88;100.00;97933.88;5038247;28;20237;-78
2023/07/04 01:29:36;;;;;;;3.57;1.80;;;;;;;17.87;100.00;97943.81;5037343;28;20202;-78
2023/07/04 01:32:03;;;;;;;2.70;1.77;;;;;;;17.93;100.00;97929.31;5036131;28;20564;-78
2023/07/04 01:34:32;;;;;;;4.17;1.87;;;;;;;17.95;100.00;97935.22;5037126;28;20202;-78
2023/07/04 01:37:00;;;;;;;3.40;2.03;;;;;;;17.90;100.00;97940.59;5036375;28;20225;-78
2023/07/04 01:39:26;;;;;;;2.93;1.83;;;;;;;17.89;100.00;97936.28;5037049;28;20230;-79
2023/07/04 01:41:52;;;;;;;3.80;2.33;;;;;;;17.86;100.00;97936.00;5035854;28;20201;-78
2023/07/04 01:44:22;;;;;;;1.77;1.67;;;;;;;17.87;100.00;97930.34;5036524;28;20206;-78
2023/07/04 01:46:49;;;;;;;4.30;2.50;;;;;;;17.88;100.00;97936.56;5036104;28;20226;-78
2023/07/04 01:49:16;;;;;;;2.47;2.03;;;;;;;17.82;100.00;97929.56;5036297;28;20213;-79
2023/07/04 01:51:43;;;;;;;2.83;1.83;;;;;;;17.80;100.00;97929.84;5036331;28;20621;-78
2023/07/04 01:54:16;;;;;;;2.63;1.93;;;;;;;17.81;100.00;97933.31;5036402;28;20206;-78
2023/07/04 01:56:43;;;;;;;2.20;1.90;;;;;;;17.79;100.00;97932.78;5036176;28;20221;-78
2023/07/04 01:59:09;;;;;;;3.73;2.00;;;;;;;17.78;100.00;97940.03;5036299;28;20226;-79
2023/07/04 02:01:35;;;;;;;4.37;1.90;;;;;;;17.79;100.00;97933.59;5036314;28;20214;-78
2023/07/04 02:04:02;;;;;;;4.93;2.27;;;;;;;17.75;100.00;97935.22;5035953;28;20217;-79
2023/07/04 02:06:29;;;;;;;3.43;2.20;;;;;;;17.75;100.00;97935.22;5035410;28;20577;-78
2023/07/04 02:08:55;;;;;;;4.23;2.30;;;;;;;17.81;100.00;97938.69;5035737;28;20206;-78
2023/07/04 02:11:21;;;;;;;2.37;1.67;;;;;;;17.77;100.00;97938.41;5036236;28;20217;-78
2023/07/04 02:13:48;;;;;;;3.03;2.00;;;;;;;17.76;100.00;97942.19;5035341;28;20233;-78
2023/07/04 02:16:14;;;;;;;3.17;2.13;;;;;;;17.78;100.00;97939.25;5035512;28;20225;-78
2023/07/04 02:18:41;;;;;;;2.57;2.10;;;;;;;17.79;100.00;97928.22;5035625;28;20212;-78
2023/07/04 02:21:07;;;;;;;2.00;1.80;;;;;;;17.76;100.00;97927.94;5035679;28;20232;-78
2023/07/04 02:23:33;;;;;;;3.03;2.10;;;;;;;17.79;100.00;97936.28;5035553;28;20205;-78
2023/07/04 02:26:00;;;;;;;4.13;1.80;;;;;;;17.81;100.00;97927.94;5035365;28;20241;-78
2023/07/04 02:28:26;;;;;;;2.63;1.93;;;;;;;17.79;100.00;97936.28;5035552;28;20577;-79
2023/07/04 02:30:57;;;;;;;3.73;1.97;;;;;;;17.78;100.00;97934.66;5035630;28;20240;-78
2023/07/04 02:33:23;;;;;;;3.00;2.10;;;;;;;17.83;100.00;97934.66;5035556;28;20556;-78
2023/07/04 02:35:50;;;;;;;3.20;2.50;;;;;;;17.83;100.00;97941.94;5035340;28;20237;-78
2023/07/04 02:38:18;;;;;;;2.20;2.00;;;;;;;17.79;100.00;97930.91;5035627;28;20206;-79
2023/07/04 02:40:49;;;;;;;3.00;2.10;;;;;;;17.77;100.00;97941.13;5035655;28;20808;-78
2023/07/04 02:43:16;;;;;;;2.37;2.00;;;;;;;17.70;100.00;97937.91;5035206;28;20565;-79
2023/07/04 02:45:44;;;;;;;4.10;1.97;;;;;;;17.69;100.00;97940.84;5035062;28;20205;-79
2023/07/04 02:48:10;;;;;;;3.57;2.27;;;;;;;17.67;100.00;97940.28;5035436;28;20577;-78
2023/07/04 02:50:37;;;;;;;3.43;2.20;;;;;;;17.60;100.00;97939.75;5034878;28;20688;-78
2023/07/04 02:53:03;;;;;;;4.23;2.00;;;;;;;17.54;100.00;97938.09;5035581;28;20205;-78
2023/07/04 02:55:30;;;;;;;2.77;1.67;;;;;;;17.46;100.00;97944.81;5035126;28;20212;-78
2023/07/04 02:57:56;;;;;;;2.97;2.23;;;;;;;17.47;100.00;97949.09;5035333;28;20217;-78
2023/07/04 03:00:23;;;;;;;4.47;2.10;;;;;;;17.48;100.00;97945.38;5034893;28;20697;-79
2023/07/04 03:02:50;;;;;;;2.77;2.20;;;;;;;17.48;100.00;97947.25;5035110;28;20212;-78
2023/07/04 03:05:16;;;;;;;3.37;1.90;;;;;;;17.53;100.00;97953.44;5034992;28;20214;-78
2023/07/04 03:07:42;;;;;;;4.30;2.13;;;;;;;17.56;100.00;97958.28;5034578;28;20232;-78
2023/07/04 03:10:09;;;;;;;2.87;2.00;;;;;;;17.56;100.00;97952.91;5035090;28;20307;-79
2023/07/04 03:12:35;;;;;;;5.10;1.83;;;;;;;17.57;100.00;97954.53;5034270;28;20692;-78
2023/07/04 03:15:02;;;;;;;3.07;1.97;;;;;;;17.53;100.00;97958.00;5035549;28;20237;-79
2023/07/04 03:17:28;;;;;;;4.67;1.83;;;;;;;17.61;100.00;97954.81;5035083;28;20253;-79
2023/07/04 03:19:55;;;;;;;2.27;1.90;;;;;;;17.59;100.00;97963.13;5034453;28;20229;-78
2023/07/04 03:22:21;;;;;;;2.47;1.73;;;;;;;17.62;100.00;97962.59;5034764;28;20209;-78
2023/07/04 03:24:47;;;;;;;2.37;1.73;;;;;;;17.56;100.00;97958.28;5034970;28;20216;-79
2023/07/04 03:27:14;;;;;;;2.10;1.93;;;;;;;17.53;100.00;97960.69;5034255;28;20238;-79
2023/07/04 03:29:40;;;;;;;2.70;1.50;;;;;;;17.53;100.00;97963.38;5034618;28;20198;-78
2023/07/04 03:32:07;;;;;;;2.70;1.70;;;;;;;17.56;100.00;97958.28;5034533;28;20205;-78
2023/07/04 03:34:33;;;;;;;2.60;1.80;;;;;;;17.54;100.00;97960.44;5035854;28;20232;-79
2023/07/04 03:36:59;;;;;;;2.57;1.83;;;;;;;17.59;100.00;97959.63;5034883;28;20592;-78
2023/07/04 03:39:26;;;;;;;3.33;1.80;;;;;;;17.58;100.00;97958.81;5034604;28;20230;-79
2023/07/04 03:41:52;;;;;;;2.07;1.83;;;;;;;17.59;100.00;97959.63;5035041;28;20202;-78
2023/07/04 03:44:18;;;;;;;2.00;1.80;;;;;;;17.57;100.00;97954.53;5034501;28;20210;-78
2023/07/04 03:46:45;;;;;;;1.83;1.70;;;;;;;17.57;100.00;97964.47;5034680;28;20736;-79
2023/07/04 03:49:11;;;;;;;1.93;1.60;;;;;;;17.55;100.00;97959.34;5034671;28;20206;-79
2023/07/04 03:51:37;;;;;;;2.07;1.70;;;;;;;17.57;100.00;97954.53;5034255;28;20687;-79
2023/07/04 03:54:04;;;;;;;3.03;1.70;;;;;;;17.57;100.00;97956.41;5034047;28;20202;-78
2023/07/04 03:56:30;;;;;;;3.47;1.83;;;;;;;17.56;100.00;97962.84;5036640;28;20251;-78
2023/07/04 03:58:56;;;;;;;2.47;1.70;;;;;;;17.54;100.00;97959.63;5038016;28;20684;-78
2023/07/04 04:01:24;;;;;;;3.07;1.63;;;;;;;17.58;100.00;97966.06;5038336;28;20229;-78
2023/07/04 04:03:53;;;;;;;1.83;1.60;;;;;;;17.59;100.00;97962.31;5038018;28;20205;-78
2023/07/04 04:06:20;;;;;;;1.80;1.57;;;;;;;17.63;100.00;97958.03;5037563;28;20592;-78
2023/07/04 04:08:47;;;;;;;2.47;1.70;;;;;;;17.62;100.00;97956.41;5038010;28;20206;-78
2023/07/04 04:11:13;;;;;;;1.80;1.70;;;;;;;17.66;100.00;97965.56;5038573;28;20205;-78
2023/07/04 04:13:40;;;;;;;2.03;1.93;;;;;;;17.62;100.00;97964.47;5038329;28;20206;-78
2023/07/04 04:16:07;;;;;;;2.60;1.70;;;;;;;17.60;100.00;97962.03;5040742;28;20228;-78
2023/07/04 04:18:34;;;;;;;1.90;1.67;;;;;;;17.64;100.00;97967.72;5058876;28;20215;-78
2023/07/04 04:21:00;;;;;;;2.03;1.53;;;;;;;17.69;100.00;97965.03;5042957;28;20229;-78
2023/07/04 04:23:27;;;;;;;2.13;1.60;;;;;;;17.66;100.00;97963.69;5038075;28;20220;-78
2023/07/04 04:25:53;;;;;;;2.20;2.00;;;;;;;17.71;100.00;97957.50;5037266;28;20721;-78
2023/07/04 04:28:19;;;;;;;1.70;1.50;;;;;;;17.76;100.00;97961.00;5037953;28;20596;-78
2023/07/04 04:30:47;;;;;;;1.90;1.70;;;;;;;17.76;100.00;97968.25;5040996;28;20209;-78
2023/07/04 04:33:16;;;;;;;1.60;1.50;;;;;;;17.79;100.00;97967.75;5068942;28;20197;-78
2023/07/04 04:35:44;;;;;;;2.73;1.93;;;;;;;17.84;100.00;97965.88;5075229;28;20205;-78
2023/07/04 04:38:11;;;;;;;1.93;1.63;;;;;;;17.90;100.00;97961.28;5054352;28;20605;-78
2023/07/04 04:40:38;;;;;;;1.53;1.43;;;;;;;18.00;100.00;97966.69;5050994;28;20232;-78
2023/07/04 04:43:05;;;;;;;1.80;1.60;;;;;;;17.99;100.00;97960.50;5059899;28;20208;-78
2023/07/04 04:45:31;;;;;;;2.33;1.77;;;;;;;18.10;100.00;97972.09;5055988;28;20210;-78
2023/07/04 04:47:57;;;;;;;2.53;1.70;;;;;;;18.12;100.00;97973.44;5057851;28;20288;-78
2023/07/04 04:50:26;;;;;;;2.03;1.70;;;;;;;18.16;100.00;97971.81;5055424;28;20201;-78
2023/07/04 04:52:52;;;;;;;2.87;1.70;;;;;;;18.16;100.00;97974.50;5051268;28;20205;-78
2023/07/04 04:55:19;;;;;;;2.93;1.47;;;;;;;18.17;100.00;97967.22;5047772;28;20561;-78
2023/07/04 04:57:45;;;;;;;1.70;1.60;;;;;;;18.16;100.00;97979.88;5037584;28;20221;-78
2023/07/04 05:00:13;;;;;;;2.00;1.60;;;;;;;18.22;100.00;97978.81;5037145;28;20276;-78
2023/07/04 05:02:39;;;;;;;2.17;1.70;;;;;;;18.34;100.00;97978.56;5038480;28;20210;-78
2023/07/04 05:05:06;;;;;;;2.23;1.70;;;;;;;18.41;100.00;97981.81;5037639;28;20206;-78
2023/07/04 05:07:33;;;;;;;2.17;1.70;;;;;;;18.45;100.00;97988.22;5037064;28;20222;-78
2023/07/04 05:10:00;;;;;;;2.03;1.80;;;;;;;18.61;100.00;97982.59;5038431;28;20219;-78
2023/07/04 05:12:26;;;;;;;2.67;1.70;;;;;;;18.69;100.00;97989.31;5037665;28;20202;-78
2023/07/04 05:14:53;;;;;;;2.10;1.40;;;;;;;18.71;100.00;97993.34;5037427;28;20216;-78
2023/07/04 05:17:19;;;;;;;2.60;2.00;;;;;;;18.71;100.00;97996.03;5037922;28;20237;-78
2023/07/04 05:19:50;;;;;;;4.00;1.77;;;;;;;18.64;100.00;97995.47;5037265;28;20213;-78
2023/07/04 05:22:17;;;;;;;2.70;2.00;;;;;;;18.58;100.00;97999.28;5037486;28;20209;-78
2023/07/04 05:24:44;;;;;;;2.33;1.77;;;;;;;18.63;100.00;98001.97;5037155;28;20217;-78
2023/07/04 05:27:10;;;;;;;2.17;1.90;;;;;;;18.64;100.00;98000.88;5036765;28;20352;-78
2023/07/04 05:29:37;;;;;;;2.37;1.90;;;;;;;18.67;100.00;98004.91;5037384;28;20213;-78
2023/07/04 05:32:03;;;;;;;2.23;1.63;;;;;;;18.67;100.00;98005.72;5038830;28;20228;-78
2023/07/04 05:34:30;;;;;;;2.73;2.07;;;;;;;18.72;100.00;98005.72;5037579;28;20212;-80
2023/07/04 05:36:56;;;;;;;2.17;1.93;;;;;;;18.77;100.00;98008.41;5037456;28;20591;-78
2023/07/04 05:39:22;;;;;;;3.63;1.97;;;;;;;18.89;100.00;98006.22;5037938;28;20685;-78
2023/07/04 05:41:49;;;;;;;3.60;2.07;;;;;;;18.92;100.00;98015.66;5038144;28;20222;-79
2023/07/04 05:44:17;;;;;;;2.33;1.87;;;;;;;19.10;100.00;98004.28;5038213;28;20228;-79
2023/07/04 05:46:43;;;;;;;3.20;1.90;;;;;;;19.16;100.00;98006.69;5038081;28;20280;-77
2023/07/04 05:49:09;;;;;;;3.90;2.00;;;;;;;19.11;99.28;98006.72;5036070;28;20213;-78
2023/07/04 05:51:36;;;;;;;2.73;1.63;;;;;;;19.09;100.00;98010.75;5036927;28;20208;-79
2023/07/04 05:54:02;;;;;;;3.10;1.90;;;;;;;19.06;99.86;98012.13;5037106;28;20209;-78
2023/07/04 05:56:32;;;;;;;2.63;1.80;;;;;;;19.13;98.12;98012.63;5036530;28;20243;-79
2023/07/04 05:59:00;;;;;;;5.03;2.30;;;;;;;19.28;97.80;98015.28;5037057;28;20206;-78
2023/07/04 06:01:37;;;;;;;3.20;2.10;;;;;;;19.49;96.79;98005.22;5035475;28;20222;-74
2023/07/04 06:04:06;;;;;;;3.27;2.30;;;;;;;19.67;92.47;98010.00;5034896;28;20267;-73
2023/07/04 06:06:40;;;;;;;5.13;2.03;;;;;;;19.81;92.07;98013.69;5034756;28;20265;-75
2023/07/04 06:09:08;;;;;;;4.87;2.10;;;;;;;19.80;89.95;98016.69;5034564;28;20198;-73
2023/07/04 06:11:38;;;;;;;3.10;2.00;;;;;;;19.60;90.23;98015.69;5034491;28;20209;-73
2023/07/04 06:14:06;;;;;;;4.30;2.30;;;;;;;19.75;90.51;98017.50;5034466;28;20206;-74
2023/07/04 06:16:35;;;;;;;4.63;2.17;;;;;;;19.85;90.27;98022.06;5034946;28;20233;-74
2023/07/04 06:19:01;;;;;;;4.87;2.10;;;;;;;19.80;85.78;98016.69;5034454;28;20202;-73
2023/07/04 06:21:28;;;;;;;4.77;2.50;;;;;;;19.82;85.67;98020.72;5033829;28;20228;-73
2023/07/04 06:23:58;;;;;;;7.50;2.40;;;;;;;19.98;85.08;98005.25;5034395;28;20209;-73
2023/07/04 06:26:27;;;;;;;2.27;2.03;;;;;;;20.21;83.70;98021.56;5033993;28;20260;-73
2023/07/04 06:28:55;;;;;;;4.70;2.20;;;;;;;20.23;83.02;98023.97;5033647;28;20238;-73
2023/07/04 06:31:21;;;;;;;5.33;2.70;;;;;;;20.26;81.38;98024.22;5033917;28;20202;-73
2023/07/04 06:33:48;;;;;;;4.60;2.30;;;;;;;20.14;80.77;98014.88;5034218;28;20212;-73
2023/07/04 06:36:16;;;;;;;4.37;2.40;;;;;;;20.10;80.74;98025.44;5034022;28;20232;-73
2023/07/04 06:38:43;;;;;;;5.60;2.67;;;;;;;20.11;80.10;98024.34;5034155;28;20229;-73
2023/07/04 06:41:15;;;;;;;6.03;2.50;;;;;;;20.02;79.72;98025.19;5033730;28;20226;-73
2023/07/04 06:43:43;;;;;;;4.77;2.50;;;;;;;20.12;78.92;98025.16;5034136;28;20190;-73
2023/07/04 06:46:15;;;;;;;5.03;2.30;;;;;;;20.20;79.76;98025.34;5034131;28;20229;-74
2023/07/04 06:48:41;;;;;;;7.50;2.60;;;;;;;20.16;78.29;98032.41;5037223;28;20190;-73
2023/07/04 06:51:12;;;;;;;7.53;3.20;;;;;;;20.10;76.45;98030.00;5034126;28;20213;-73
2023/07/04 06:53:38;;;;;;;6.83;3.00;;;;;;;20.18;78.04;98037.53;5034023;28;20608;-73
2023/07/04 06:56:11;;;;;;;7.53;2.93;;;;;;;20.15;76.97;98032.66;5033833;28;20233;-73
2023/07/04 06:58:41;;;;;;;4.07;2.67;;;;;;;20.16;76.74;98028.91;5034186;28;20201;-73
2023/07/04 07:01:08;;;;;;;5.90;2.83;;;;;;;20.32;74.95;98041.19;5033548;28;20261;-73
2023/07/04 07:03:35;;;;;;;5.70;2.60;;;;;;;20.41;74.56;98034.09;5033823;28;20213;-73
2023/07/04 07:06:06;;;;;;;7.27;3.00;;;;;;;20.59;73.14;98041.53;5034067;28;20242;-73
2023/07/04 07:08:33;;;;;;;6.73;2.87;;;;;;;20.63;71.57;98046.09;5033653;28;20186;-73
2023/07/04 07:11:03;;;;;;;5.27;3.10;;;;;;;20.71;69.85;98055.47;5033786;28;20573;-73
2023/07/04 07:13:30;;;;;;;4.70;2.80;;;;;;;20.68;70.57;98051.44;5033680;28;20228;-74
2023/07/04 07:16:11;;;;;;;4.70;2.70;;;;;;;20.61;71.71;98044.75;5033694;28;20248;-73
2023/07/04 07:18:39;;;;;;;5.37;2.80;;;;;;;20.76;70.81;98053.53;5033461;28;20648;-73
2023/07/04 07:21:07;;;;;;;5.87;2.90;;;;;;;20.70;71.14;98056.56;5033769;28;20230;-73
2023/07/04 07:23:36;;;;;;;4.77;2.80;;;;;;;20.73;72.05;98064.09;5033320;28;20213;-73
2023/07/04 07:26:06;;;;;;;5.67;2.80;;;;;;;20.67;72.54;98060.63;5033252;28;20238;-73
2023/07/04 07:28:38;;;;;;;7.03;3.10;;;;;;;20.56;70.50;98061.00;5033156;28;20210;-73
2023/07/04 07:31:10;;;;;;;4.47;2.90;;;;;;;20.65;69.90;98056.59;5033105;28;20262;-74
2023/07/04 07:33:39;;;;;;;7.03;3.03;;;;;;;20.73;70.53;98062.22;5033420;28;20194;-74
2023/07/04 07:36:15;;;;;;;5.60;2.70;;;;;;;20.77;69.74;98070.53;5032978;28;20574;-74
2023/07/04 07:38:43;;;;;;;5.83;2.80;;;;;;;20.79;70.49;98060.28;5033408;28;20201;-74
2023/07/04 07:41:10;;;;;;;5.17;3.03;;;;;;;20.88;70.59;98059.38;5033298;28;20230;-74
2023/07/04 07:43:39;;;;;;;7.03;3.20;;;;;;;21.07;69.41;98059.50;5033539;28;20223;-74
2023/07/04 07:46:14;;;;;;;5.60;2.70;;;;;;;20.98;68.05;98055.81;5032854;28;20230;-74
2023/07/04 07:48:41;;;;;;;6.77;3.07;;;;;;;20.80;68.58;98059.97;5033109;28;20216;-73
2023/07/04 07:51:10;;;;;;;4.90;2.70;;;;;;;20.93;69.14;98051.25;5033311;28;20574;-73
2023/07/04 07:53:37;;;;;;;5.13;2.60;;;;;;;20.99;67.46;98057.41;5032977;28;20263;-73
2023/07/04 07:56:05;;;;;;;6.57;3.13;;;;;;;21.01;66.86;98056.03;5033041;28;20230;-73
2023/07/04 07:58:32;;;;;;;5.10;2.87;;;;;;;20.90;66.64;98057.22;5033333;28;20210;-73
2023/07/04 08:00:59;;;;;;;7.27;3.40;;;;;;;21.26;66.56;98057.66;5032868;28;20217;-73
2023/07/04 08:03:25;;;;;;;5.77;3.00;;;;;;;21.25;63.77;98061.47;5033284;28;20213;-73
2023/07/04 08:05:51;;;;;;;7.93;3.47;;;;;;;21.25;62.18;98059.56;5033037;28;20237;-73
2023/07/04 08:08:18;;;;;;;6.13;3.13;;;;;;;21.24;61.95;98055.25;5033851;28;20206;-73
2023/07/04 08:10:44;;;;;;;9.20;3.63;;;;;;;21.05;61.32;98056.25;5032784;28;20665;-73
2023/07/04 08:13:12;;;;;;;5.80;3.30;;;;;;;21.29;62.06;98051.69;5032720;28;20677;-73
2023/07/04 08:15:38;;;;;;;4.13;3.33;;;;;;;21.46;61.32;98052.03;5032899;28;20232;-73
2023/07/04 08:18:09;;;;;;;6.33;3.53;;;;;;;21.41;61.46;98054.78;5032915;28;20202;-73
2023/07/04 08:20:36;;;;;;;10.83;3.83;;;;;;;21.56;61.16;98047.28;5033148;28;20194;-73
2023/07/04 08:23:03;;;;;;;5.90;3.43;;;;;;;21.90;59.76;98036.34;5033305;28;20206;-73
2023/07/04 08:25:30;;;;;;;5.57;3.00;;;;;;;21.97;60.87;98039.50;5032824;28;20289;-73
2023/07/04 08:27:56;;;;;;;5.18;3.17;;;;;;;21.60;60.46;98050.22;5032967;28;20284;-73
2023/07/04 08:30:22;;;;;;;5.10;3.07;;;;;;;21.28;60.77;98052.75;5033317;28;20212;-73
2023/07/04 08:32:49;;;;;;;6.03;3.38;;;;;;;21.53;60.91;98047.09;5032578;28;20551;-73
2023/07/04 08:35:15;;;;;;;5.38;3.40;;;;;;;21.57;61.14;98045.41;5032897;28;20210;-73
2023/07/04 08:37:42;;;;;;;6.80;3.53;;;;;;;21.36;61.36;98049.44;5032503;28;20601;-73
2023/07/04 08:40:08;;;;;;;9.57;3.90;;;;;;;21.61;61.71;98049.16;5032725;28;20573;-73
2023/07/04 08:42:39;;;;;;;5.50;3.15;;;;;;;21.61;60.86;98043.75;5034885;28;20221;-74
2023/07/04 08:45:10;;;;;;;4.87;3.50;;;;;;;21.57;62.67;98053.53;5037728;28;20206;-73
2023/07/04 08:47:38;;;;;;;8.07;3.73;;;;;;;21.57;61.40;98050.81;5036523;28;20237;-73
2023/07/04 08:50:12;;;;;;;7.70;3.47;;;;;;;21.46;62.63;98054.72;5036270;28;20238;-73
2023/07/04 08:52:55;;;;;;;5.93;3.53;;;;;;;21.64;62.44;98048.56;5036501;28;20196;-73
2023/07/04 08:55:24;;;;;;;5.33;3.80;;;;;;;21.57;61.24;98046.19;5036111;28;20637;-73
2023/07/04 08:57:56;;;;;;;7.90;3.83;;;;;;;21.39;61.55;98054.28;5034961;28;20230;-73
2023/07/04 09:00:23;;;;;;;6.73;3.70;;;;;;;21.52;59.88;98056.28;5035766;28;20565;-73
2023/07/04 09:03:22;;;;;;;7.40;3.63;;;;;;;21.82;60.30;98032.38;5036028;28;20230;-73
2023/07/04 09:05:54;;;;;;;4.60;3.83;;;;;;;21.83;58.50;98033.19;5034746;28;20736;-73
2023/07/04 09:08:43;;;;;;;6.13;3.90;;;;;;;22.27;56.52;98044.47;5036313;28;20194;-73
2023/07/04 09:11:13;;;;;;;7.22;3.65;;;;;;;22.38;57.17;98044.00;5036060;28;20193;-73
2023/07/04 09:13:43;;;;;;;7.75;4.18;;;;;;;22.54;55.97;98039.19;5035973;28;20206;-73
2023/07/04 09:16:21;;;;;;;7.85;3.90;;;;;;;22.41;56.53;98039.91;5035545;28;20731;-73
2023/07/04 09:18:58;;;;;;;5.85;4.32;;;;;;;22.44;55.00;98037.44;5036208;28;20194;-73
2023/07/04 09:21:26;;;;;;;7.38;5.07;;;;;;;22.72;53.83;98041.88;5035675;28;20209;-73
2023/07/04 09:23:55;;;;;;;6.72;4.60;;;;;;;22.87;54.14;98036.19;5035323;28;20209;-73
2023/07/04 09:26:24;;;;;;;8.68;5.05;;;;;;;22.33;53.13;98038.69;5035313;28;20234;-73
2023/07/04 09:28:52;;;;;;;7.32;4.30;;;;;;;22.63;55.26;98029.28;5035763;28;20232;-73
2023/07/04 09:31:25;;;;;;;8.48;5.00;;;;;;;22.70;52.85;98035.16;5034671;28;20205;-73
2023/07/04 09:33:53;;;;;;;6.63;4.28;;;;;;;22.91;53.09;98033.66;5035964;28;20225;-73
2023/07/04 09:36:22;;;;;;;5.90;4.43;;;;;;;22.63;54.07;98030.09;5035643;28;20230;-73
2023/07/04 09:38:57;;;;;;;5.57;4.50;;;;;;;22.62;54.09;98022.25;5035767;28;20213;-73
2023/07/04 09:41:31;;;;;;;6.70;4.38;;;;;;;22.56;55.22;98035.09;5035086;28;20221;-74
2023/07/04 09:44:11;;;;;;;7.25;4.63;;;;;;;22.09;55.88;98039.84;5036054;28;20201;-73
2023/07/04 09:46:38;;;;;;;5.97;4.30;;;;;;;21.97;56.25;98039.50;5034816;28;20701;-74
2023/07/04 09:49:19;;;;;;;7.68;4.28;;;;;;;21.84;56.00;98032.09;5035515;28;20233;-74
2023/07/04 09:52:03;;;;;;;5.40;4.63;;;;;;;21.97;56.39;98028.69;5035042;28;20202;-74
2023/07/04 09:54:40;;;;;;;7.32;4.47;;;;;;;22.22;55.28;98028.28;5034602;28;20201;-73
2023/07/04 09:57:29;;;;;;;7.45;4.57;;;;;;;22.00;56.34;98033.47;5035068;28;20226;-74
2023/07/04 10:00:16;;;;;;;6.38;4.22;;;;;;;21.79;59.17;98041.09;5034685;28;20637;-73
2023/07/04 10:02:43;;;;;;;9.07;4.80;;;;;;;21.99;56.60;98030.00;5035966;28;20297;-73
2023/07/04 10:05:11;;;;;;;7.28;4.47;;;;;;;22.11;57.79;98024.13;5035190;28;20210;-73
2023/07/04 10:07:38;;;;;;;9.95;4.88;;;;;;;22.08;56.48;98028.25;5034497;28;20713;-73
2023/07/04 10:10:08;;;;;;;9.10;4.90;;;;;;;21.74;57.29;98027.63;5034745;28;20205;-73
2023/07/04 10:12:46;;;;;;;7.13;4.77;;;;;;;22.05;54.57;98028.00;5033472;28;20194;-73
2023/07/04 10:15:24;;;;;;;7.75;4.63;;;;;;;22.46;54.28;98023.59;5034962;28;20201;-73
2023/07/04 10:17:50;;;;;;;10.73;5.07;;;;;;;22.58;53.47;98019.34;5034628;28;20230;-73
2023/07/04 10:20:17;;;;;;;8.73;4.83;;;;;;;22.69;50.76;98019.97;5034669;28;20210;-73
2023/07/04 10:22:53;;;;;;;8.43;5.15;;;;;;;22.50;52.03;98013.78;5034128;28;20704;-73
2023/07/04 10:25:22;;;;;;;6.00;4.88;;;;;;;22.45;52.22;98011.97;5034140;28;20226;-73
2023/07/04 10:27:52;;;;;;;7.00;4.70;;;;;;;22.55;52.58;98014.50;5034197;28;20270;-73
2023/07/04 10:30:30;;;;;;;6.20;5.00;;;;;;;22.37;50.99;98007.19;5034469;28;20209;-73
2023/07/04 10:33:03;;;;;;;8.18;5.43;;;;;;;22.53;51.83;98008.59;5034188;28;20248;-73
2023/07/04 10:35:32;;;;;;;8.15;4.95;;;;;;;22.73;51.97;98007.41;5034411;28;20271;-73
2023/07/04 10:38:04;;;;;;;5.70;4.97;;;;;;;22.83;50.09;97999.13;5034118;28;20210;-73
2023/07/04 10:40:35;;;;;;;6.97;4.50;;;;;;;23.10;48.55;97999.13;5034733;28;20547;-74
2023/07/04 10:43:06;;;;;;;7.65;4.80;;;;;;;23.12;47.90;97996.94;5034176;28;20217;-73
2023/07/04 10:45:33;;;;;;;6.53;5.40;;;;;;;23.15;48.57;97996.34;5034130;28;20198;-73
2023/07/04 10:48:05;;;;;;;7.70;5.00;;;;;;;23.22;48.28;97997.59;5034216;28;20202;-73
2023/07/04 10:50:47;;;;;;;4.90;4.32;;;;;;;23.43;49.06;97989.84;5033791;28;20626;-73
2023/07/04 10:53:14;;;;;;;5.85;5.05;;;;;;;23.41;50.49;97992.88;5033813;28;20190;-73
2023/07/04 10:55:47;;;;;;;7.32;5.32;;;;;;;23.18;51.46;97998.44;5033151;28;20675;-73
2023/07/04 10:58:19;;;;;;;7.05;5.65;;;;;;;23.20;48.92;98001.72;5033792;28;20205;-73
2023/07/04 11:00:55;;;;;;;8.70;5.47;;;;;;;22.41;50.74;97997.38;5033993;28;20198;-73
2023/07/04 11:03:38;;;;;;;7.88;5.32;;;;;;;22.92;50.16;97997.34;5033959;28;20294;-73
2023/07/04 11:06:08;;;;;;;7.90;5.40;;;;;;;;;;5032921;28;20230;-73
2023/07/04 11:08:37;;;;;;;7.35;5.30;;;;;;;23.72;47.94;97995.72;5034833;28;20190;-73
2023/07/04 11:11:09;;;;;;;8.02;5.10;;;;;;;23.52;47.05;97990.75;5033872;28;20233;-73
2023/07/04 11:13:45;;;;;;;8.13;4.95;;;;;;;23.78;46.72;97991.81;5033430;28;20240;-73
2023/07/04 11:16:13;;;;;;;6.40;4.78;;;;;;;24.10;45.55;97978.09;5033532;28;20229;-73
2023/07/04 11:18:43;;;;;;;7.38;4.90;;;;;;;24.44;46.05;97981.03;5032376;28;20214;-73
2023/07/04 11:21:15;;;;;;;6.75;5.00;;;;;;;24.63;44.81;97984.38;5033302;28;20191;-73
2023/07/04 11:23:51;;;;;;;6.03;4.60;;;;;;;24.78;44.61;97984.78;5033343;28;20194;-73
2023/07/04 11:26:21;;;;;;;7.82;4.60;;;;;;;24.31;43.67;97992.75;5032963;28;20233;-73
2023/07/04 11:29:15;;;;;;;6.05;4.50;;;;;;;24.14;44.33;97979.03;5033276;28;20206;-73
2023/07/04 11:32:04;;;;;;;7.05;4.63;;;;;;;23.66;45.85;97983.38;5032970;28;20210;-73
2023/07/04 11:34:49;;;;;;;6.13;4.40;;;;;;;23.29;46.79;97973.56;5033137;28;20731;-73
2023/07/04 11:37:25;;;;;;;7.38;5.32;;;;;;;23.30;47.57;97971.66;5033616;28;20225;-73
2023/07/04 11:39:57;;;;;;;5.50;4.60;;;;;;;23.43;47.70;97971.63;5032015;28;20422;-73